首页
METAR-TAF:

METAR-TAF

机场 :

累西腓/瓜拉拉皮斯-吉尔贝托·弗雷雷国际机场

累西腓, 伯南布哥, 巴西

纬度: 08-08S, 经度: 034-55W, 海拔: 19米

当前天气观测

该预报发布于31分钟前的16:00 UTC
风速12节,风向东南
温度 28°C
湿度 79%
气压 1014 hPa
能见度10公里或以上
多云层高于2000英尺
多云层高于5000英尺

METAR: SBRF 061600Z 14012KT 9999 BKN020 BKN050 28/24 Q1014

时间: 13:31 (16:31 UTC)

预报

该预报发布于13小时和31分钟前的03:00 UTC
预报有效从06日的 06点(UTC)到 07日的 06点(UTC)
风速9节,风向东南
能见度10公里或以上
散云层高于1500英尺
成为
从 06日的 12点(UTC)到 06日的 14点(UTC)
散云层高于2500英尺
成为
从 06日的 22点(UTC)到 06日的 24点(UTC)
散云层高于2000英尺

TAF: SBRF 060300Z 0606/0706 14009KT 9999 SCT015 TN23/0608Z TX30/0617Z BECMG 0612/0614 SCT025 BECMG 0622/0624 SCT020 RMK PDG

超过4000个机场的气象观测和天气预报(METAR&TAF报告)。

可查询的气象台以黄色和红色小点在地图上表示。

将鼠标移到小点上方,可查看气象台名称。

然后点击查看天气观测和预报。

如需切换地图:点击带黑十字的绿色按钮放大地图;点击带横线的绿色按钮缩小地图;或者点击绿色箭头查看邻近地区的地图。


METAR-TAF: